Stolt Surf — ZCSR3 — position and weather

sailwx.info

Track history (hours):
 
Tides and Currents Weather Stations Pressure Air Temp Water Temp Dewpoint Dewpoint Depression Visibility Wind Speed Wind Dir Waves Ship Positions

Stolt Surf

Last reported at 2016-Aug-31 07:11 UTC. Time now 2016-Aug-31 23:31 UTC.
Position N 01°15' E 104°10'.

Length 163 m; draft 8.7 m.

Type: Ship. MMSI: 319545000.

Date/timePositionNaut miles runAvg speedWind from/ knotsBaromVisibWave heightAir tempDewpointWater temp
2016-Aug-31 07:11N 01°15' E 104°10'913.4
2016-Aug-31 06:33N 01°14' E 104°01'1211.0
2016-Aug-31 05:29N 01°10' E 103°50'10 0.8
2016-Aug-30 17:33N 01°13' E 103°40'6 6.2
2016-Aug-30 16:33N 01°18' E 103°44'0 0.1
2016-Aug-30 15:30N 01°18' E 103°44'0 0.0
2016-Aug-30 14:27N 01°18' E 103°44'0 0.0
2016-Aug-30 13:30N 01°18' E 103°44'0 0.0
2016-Aug-30 12:30N 01°18' E 103°44'0 0.0
2016-Aug-30 11:30N 01°18' E 103°44'0 0.0
2016-Aug-30 10:30N 01°18' E 103°44'0 0.0
2016-Aug-30 09:30N 01°18' E 103°44'0 0.0
2016-Aug-30 08:30N 01°18' E 103°44'0 0.0
2016-Aug-30 07:24N 01°18' E 103°44'0 0.0
2016-Aug-30 06:30N 01°18' E 103°44'0 0.0
2016-Aug-30 05:24N 01°18' E 103°44'0 0.0
2016-Aug-30 04:30N 01°18' E 103°44'0 0.0
2016-Aug-30 03:33N 01°18' E 103°44'0 0.0
2016-Aug-30 02:33N 01°18' E 103°44'0 0.0
2016-Aug-30 01:12N 01°18' E 103°44'0 0.0
2016-Aug-30 00:30N 01°18' E 103°44'0 0.0
2016-Aug-29 23:24N 01°18' E 103°44'0 0.0
2016-Aug-29 22:30N 01°18' E 103°44'0 0.0
2016-Aug-29 21:30N 01°18' E 103°44'0 0.0
2016-Aug-29 20:30N 01°18' E 103°44'0 0.1
2016-Aug-29 19:30N 01°18' E 103°44'0 0.1
2016-Aug-29 18:30N 01°18' E 103°44'0 0.2
2016-Aug-29 17:33N 01°18' E 103°44'4 3.6
2016-Aug-29 16:33N 01°14' E 103°43'6 1.4
2016-Aug-29 12:34N 01°09' E 103°45'8 7.5
2016-Aug-29 11:33N 01°12' E 103°52'9 9.2
2016-Aug-29 10:33N 01°16' E 104°01'  
2016-Aug-24 03:08N 22°31' E 119°55'712.6
2016-Aug-24 02:33N 22°32' E 120°03'1312.7
2016-Aug-24 01:33N 22°33' E 120°17'2 0.1
2016-Aug-23 06:33N 22°34' E 120°19'5 5.1
2016-Aug-23 05:33N 22°32' E 120°13'9 9.2
2016-Aug-23 04:33N 22°40' E 120°08'1211.5
2016-Aug-23 03:31N 22°47' E 119°58'  
Track history (hours):
 
Tides and Currents Weather Stations Pressure Air Temp Water Temp Dewpoint Dewpoint Depression Visibility Wind Speed Wind Dir Waves Ship Positions

Stolt Surf

Last reported at 2016-Aug-31 07:11 UTC. Time now 2016-Aug-31 23:31 UTC.
Position N 01°15' E 104°10'.

Length 163 m; draft 8.7 m.

Type: Ship. MMSI: 319545000.

Date/timePositionNaut miles runAvg speedWind from/ knotsBaromVisibWave heightAir tempDewpointWater temp
2016-Aug-31 07:11N 01°15' E 104°10'913.4
2016-Aug-31 06:33N 01°14' E 104°01'1211.0
2016-Aug-31 05:29N 01°10' E 103°50'10 0.8
2016-Aug-30 17:33N 01°13' E 103°40'6 6.2
2016-Aug-30 16:33N 01°18' E 103°44'0 0.1
2016-Aug-30 15:30N 01°18' E 103°44'0 0.0
2016-Aug-30 14:27N 01°18' E 103°44'0 0.0
2016-Aug-30 13:30N 01°18' E 103°44'0 0.0
2016-Aug-30 12:30N 01°18' E 103°44'0 0.0
2016-Aug-30 11:30N 01°18' E 103°44'0 0.0
2016-Aug-30 10:30N 01°18' E 103°44'0 0.0
2016-Aug-30 09:30N 01°18' E 103°44'0 0.0
2016-Aug-30 08:30N 01°18' E 103°44'0 0.0
2016-Aug-30 07:24N 01°18' E 103°44'0 0.0
2016-Aug-30 06:30N 01°18' E 103°44'0 0.0
2016-Aug-30 05:24N 01°18' E 103°44'0 0.0
2016-Aug-30 04:30N 01°18' E 103°44'0 0.0
2016-Aug-30 03:33N 01°18' E 103°44'0 0.0
2016-Aug-30 02:33N 01°18' E 103°44'0 0.0
2016-Aug-30 01:12N 01°18' E 103°44'0 0.0
2016-Aug-30 00:30N 01°18' E 103°44'0 0.0
2016-Aug-29 23:24N 01°18' E 103°44'0 0.0
2016-Aug-29 22:30N 01°18' E 103°44'0 0.0
2016-Aug-29 21:30N 01°18' E 103°44'0 0.0
2016-Aug-29 20:30N 01°18' E 103°44'0 0.1
2016-Aug-29 19:30N 01°18' E 103°44'0 0.1
2016-Aug-29 18:30N 01°18' E 103°44'0 0.2
2016-Aug-29 17:33N 01°18' E 103°44'4 3.6
2016-Aug-29 16:33N 01°14' E 103°43'6 1.4
2016-Aug-29 12:34N 01°09' E 103°45'8 7.5
2016-Aug-29 11:33N 01°12' E 103°52'9 9.2
2016-Aug-29 10:33N 01°16' E 104°01'  
2016-Aug-24 03:08N 22°31' E 119°55'712.6
2016-Aug-24 02:33N 22°32' E 120°03'1312.7
2016-Aug-24 01:33N 22°33' E 120°17'2 0.1
2016-Aug-23 06:33N 22°34' E 120°19'5 5.1
2016-Aug-23 05:33N 22°32' E 120°13'9 9.2
2016-Aug-23 04:33N 22°40' E 120°08'1211.5
2016-Aug-23 03:31N 22°47' E 119°58'  

Dump ship's entire track history